FSIA

Seychelles International Airport

Mahe Island, Seychelles
METAR FSIA 161800Z 19003KT 9999 FEW025 25/23 Q1013 NOSIG
Observed Flight Rules
Jan-16 @ 18:00 UTC (28 minutes ago) Visual Flight Rules
Wind Visibility Clouds
190° at 3 knots 10,000+ meters
  • Few at 2,500' AGL
Temperatures Readings
Current 25°C / 77°F
Dewpoint 23°C / 73°F
Humidity 89%
Altimeter 29.91" Hg
Pressure 1012.92 hPa
Elevation 3
METAR FSIA 161800Z 19003KT 9999 FEW025 25/23 Q1013 NOSIG
Observed Flight Rules
Jan-16 @ 18:00 UTC
(28 minutes ago)
VFR
Wind Visibility
190° at 3 knots 10,000+ meters
Clouds
  • Few at 2,500' AGL
Temperature Dewpoint
25°C / 77°F 23°C / 73°F
Humidity Altimeter Pressure
89% 29.91" Hg 1012.92 hPa